createdAt,value
2018-06-18T00:00:56.600Z,0.00
2018-06-18T00:01:56.583Z,0.00
2018-06-18T00:02:56.567Z,0.00
2018-06-18T00:03:56.548Z,0.00
2018-06-18T00:04:56.536Z,0.00
2018-06-18T00:05:56.516Z,0.00
2018-06-18T00:06:56.510Z,0.00
2018-06-18T00:07:56.482Z,0.00
2018-06-18T00:08:56.468Z,0.00
2018-06-18T00:09:56.478Z,0.00
2018-06-18T00:10:56.433Z,0.00
2018-06-18T00:11:56.418Z,0.00
2018-06-18T00:12:56.400Z,0.00
2018-06-18T00:13:56.399Z,0.00
2018-06-18T00:14:56.375Z,0.00
2018-06-18T00:15:56.348Z,0.00
2018-06-18T00:16:56.331Z,0.00
2018-06-18T00:17:56.318Z,0.00
2018-06-18T00:18:56.298Z,0.00
2018-06-18T00:19:56.283Z,0.00
2018-06-18T00:20:56.269Z,0.00
2018-06-18T00:21:56.248Z,0.00
2018-06-18T00:22:56.242Z,0.00
2018-06-18T00:23:56.215Z,0.00
2018-06-18T00:24:56.197Z,0.00
2018-06-18T00:25:56.181Z,0.00
2018-06-18T00:26:56.163Z,0.00
2018-06-18T00:27:56.147Z,0.00
2018-06-18T00:28:56.139Z,0.00
2018-06-18T00:29:56.116Z,0.00
2018-06-18T00:30:56.098Z,0.00
2018-06-18T00:31:56.080Z,0.00
2018-06-18T00:32:56.077Z,0.00
2018-06-18T00:33:56.047Z,0.00
2018-06-18T00:34:56.032Z,0.00
2018-06-18T00:35:56.012Z,0.00
2018-06-18T00:36:56.001Z,0.00
2018-06-18T00:37:55.981Z,0.00
2018-06-18T00:38:55.964Z,0.00
2018-06-18T00:39:55.948Z,0.00
2018-06-18T00:40:55.932Z,0.00
2018-06-18T00:41:55.915Z,0.00
2018-06-18T00:42:55.898Z,0.00
2018-06-18T00:43:55.880Z,0.00
2018-06-18T00:44:55.863Z,0.00
2018-06-18T00:45:55.848Z,0.00
2018-06-18T00:46:55.840Z,0.00
2018-06-18T00:47:55.814Z,0.00
2018-06-18T00:48:55.797Z,0.00
2018-06-18T00:49:55.780Z,0.00
2018-06-18T00:50:55.768Z,0.00
2018-06-18T00:51:55.748Z,0.00
2018-06-18T00:52:55.751Z,0.00
2018-06-18T00:53:55.713Z,0.00
2018-06-18T00:54:55.700Z,0.00
2018-06-18T00:55:55.680Z,0.00
2018-06-18T00:56:55.680Z,0.00
2018-06-18T00:57:55.668Z,0.00
2018-06-18T00:58:55.629Z,0.00
2018-06-18T00:59:55.616Z,0.00
2018-06-18T01:00:55.598Z,0.00
2018-06-18T01:01:55.582Z,0.00
2018-06-18T01:02:55.567Z,0.00
2018-06-18T01:03:55.549Z,0.00
2018-06-18T01:04:55.531Z,0.00
2018-06-18T01:05:55.515Z,0.00
2018-06-18T01:06:55.498Z,0.00
2018-06-18T01:07:55.490Z,0.00
2018-06-18T01:08:55.465Z,0.00
2018-06-18T01:09:55.450Z,0.00
2018-06-18T01:10:55.431Z,0.00
2018-06-18T01:11:55.415Z,0.00
2018-06-18T01:12:55.397Z,0.00
2018-06-18T01:13:55.381Z,0.00
2018-06-18T01:14:55.366Z,0.00
2018-06-18T01:15:55.348Z,0.00
2018-06-18T01:16:55.330Z,0.00
2018-06-18T01:17:55.316Z,0.00
2018-06-18T01:18:55.298Z,0.00
2018-06-18T01:19:55.292Z,0.00
2018-06-18T01:20:55.269Z,0.00
2018-06-18T01:21:55.247Z,0.00
2018-06-18T01:22:55.238Z,0.00
2018-06-18T01:23:55.219Z,0.00
2018-06-18T01:24:55.198Z,0.00
2018-06-18T01:25:55.183Z,0.00
2018-06-18T01:26:55.174Z,0.00
2018-06-18T01:27:55.147Z,0.00
2018-06-18T01:28:55.132Z,0.00
2018-06-18T01:29:55.114Z,0.00
2018-06-18T01:30:55.100Z,0.00
2018-06-18T01:31:55.081Z,0.00
2018-06-18T01:32:55.069Z,0.00
2018-06-18T01:33:55.050Z,0.00
2018-06-18T01:34:55.034Z,0.00
2018-06-18T01:35:55.030Z,0.00
2018-06-18T01:36:55.010Z,0.00
2018-06-18T01:37:54.989Z,0.00
2018-06-18T01:38:54.966Z,0.00
2018-06-18T01:39:54.952Z,0.00
2018-06-18T01:40:54.932Z,0.00
2018-06-18T01:41:54.916Z,0.00
2018-06-18T01:42:54.898Z,0.00
2018-06-18T01:43:54.893Z,0.00
2018-06-18T01:44:54.867Z,0.00
2018-06-18T01:45:54.849Z,0.00
2018-06-18T01:46:54.844Z,0.00
2018-06-18T01:47:54.816Z,0.00
2018-06-18T01:48:54.801Z,0.00
2018-06-18T01:49:54.786Z,0.00
2018-06-18T01:50:54.768Z,0.00
2018-06-18T01:51:54.767Z,0.00
2018-06-18T01:52:54.734Z,0.00
2018-06-18T01:53:54.726Z,0.00
2018-06-18T01:54:54.702Z,0.00
2018-06-18T01:55:54.684Z,0.00
2018-06-18T01:56:54.667Z,0.00
2018-06-18T01:57:54.652Z,0.00
2018-06-18T01:58:54.636Z,0.00
2018-06-18T01:59:54.617Z,0.00
2018-06-18T02:00:54.606Z,0.00
2018-06-18T02:01:54.584Z,0.00
2018-06-18T02:02:54.569Z,0.00
2018-06-18T02:03:54.554Z,0.00
2018-06-18T02:04:54.535Z,0.00
2018-06-18T02:05:54.521Z,0.00
2018-06-18T02:06:54.502Z,0.00
2018-06-18T02:07:54.488Z,0.00
2018-06-18T02:08:54.467Z,0.00
2018-06-18T02:09:54.453Z,0.00
2018-06-18T02:10:54.435Z,0.00
2018-06-18T02:11:54.421Z,0.00
2018-06-18T02:12:54.403Z,0.00
2018-06-18T02:13:54.389Z,0.00
2018-06-18T02:14:54.369Z,0.00
2018-06-18T02:15:54.352Z,0.00
2018-06-18T02:16:54.336Z,0.00
2018-06-18T02:17:54.317Z,0.00
2018-06-18T02:18:54.303Z,0.00
2018-06-18T02:19:54.285Z,0.00
2018-06-18T02:20:54.288Z,0.00
2018-06-18T02:21:54.251Z,0.00
2018-06-18T02:22:54.233Z,0.00
2018-06-18T02:23:54.218Z,0.00
2018-06-18T02:24:54.204Z,0.00
2018-06-18T02:25:54.196Z,0.00
2018-06-18T02:26:54.168Z,0.00
2018-06-18T02:27:54.151Z,0.00
2018-06-18T02:28:54.137Z,0.00
2018-06-18T02:29:54.118Z,0.00
2018-06-18T02:30:54.103Z,0.00
2018-06-18T02:31:54.085Z,0.00
2018-06-18T02:32:54.068Z,0.00
2018-06-18T02:33:54.053Z,0.00
2018-06-18T02:34:54.034Z,0.00
2018-06-18T02:35:54.027Z,0.00
2018-06-18T02:36:54.003Z,0.00
2018-06-18T02:37:53.985Z,0.00
2018-06-18T02:38:53.971Z,0.00
2018-06-18T02:39:53.953Z,0.00
2018-06-18T02:40:53.936Z,0.00
2018-06-18T02:41:53.922Z,0.00
2018-06-18T02:42:53.904Z,0.00
2018-06-18T02:43:53.891Z,4.00
2018-06-18T02:44:53.872Z,4.00
2018-06-18T02:45:53.852Z,4.00
2018-06-18T02:46:53.836Z,0.00
2018-06-18T02:47:53.820Z,0.00
2018-06-18T02:48:53.803Z,0.00
2018-06-18T02:49:53.787Z,4.00
2018-06-18T02:50:53.770Z,4.00
2018-06-18T02:51:53.752Z,0.00
2018-06-18T02:52:53.735Z,0.00
2018-06-18T02:53:53.718Z,4.00
2018-06-18T02:54:53.721Z,4.00
2018-06-18T02:55:53.692Z,4.00
2018-06-18T02:56:53.668Z,4.00
2018-06-18T02:57:53.663Z,4.00
2018-06-18T02:58:53.637Z,4.00
2018-06-18T02:59:53.626Z,8.00
2018-06-18T03:00:53.638Z,4.00
2018-06-18T03:01:53.587Z,8.00
2018-06-18T03:02:53.570Z,8.00
2018-06-18T03:03:53.556Z,4.00
2018-06-18T03:04:53.542Z,8.00
2018-06-18T03:05:53.520Z,8.00
2018-06-18T03:06:53.503Z,8.00
2018-06-18T03:07:53.487Z,8.00
2018-06-18T03:08:53.471Z,8.00
2018-06-18T03:09:53.453Z,8.00
2018-06-18T03:10:53.443Z,8.00
2018-06-18T03:11:53.436Z,12.00
2018-06-18T03:12:53.455Z,12.00
2018-06-18T03:13:53.408Z,12.00
2018-06-18T03:14:53.412Z,12.00
2018-06-18T03:15:53.385Z,16.00
2018-06-18T03:16:53.347Z,16.00
2018-06-18T03:17:53.333Z,16.00
2018-06-18T03:18:53.324Z,16.00
2018-06-18T03:19:53.312Z,16.00
2018-06-18T03:20:53.272Z,16.00
2018-06-18T03:21:53.289Z,20.00
2018-06-18T03:22:53.240Z,20.00
2018-06-18T03:23:53.230Z,24.00
2018-06-18T03:24:53.232Z,24.00
2018-06-18T03:25:53.243Z,24.00
2018-06-18T03:26:53.203Z,28.00
2018-06-18T03:27:53.156Z,28.00
2018-06-18T03:28:53.183Z,28.00
2018-06-18T03:29:53.131Z,32.00
2018-06-18T03:30:53.119Z,36.00
2018-06-18T03:31:53.133Z,40.00
2018-06-18T03:32:53.090Z,44.00
2018-06-18T03:33:53.065Z,44.00
2018-06-18T03:34:53.066Z,44.00
2018-06-18T03:35:53.046Z,52.00
2018-06-18T03:36:53.008Z,52.00
2018-06-18T03:37:52.997Z,52.00
2018-06-18T03:38:52.996Z,44.00
2018-06-18T03:39:53.004Z,40.00
2018-06-18T03:40:52.992Z,40.00
2018-06-18T03:41:52.930Z,44.00
2018-06-18T03:42:52.964Z,48.00
2018-06-18T03:43:52.945Z,48.00
2018-06-18T03:44:52.897Z,52.00
2018-06-18T03:45:52.900Z,60.00
2018-06-18T03:46:52.860Z,68.00
2018-06-18T03:47:52.846Z,72.00
2018-06-18T03:48:52.804Z,76.00
2018-06-18T03:49:52.797Z,84.00
2018-06-18T03:50:52.777Z,84.00
2018-06-18T03:51:52.778Z,88.00
2018-06-18T03:52:52.760Z,100.00
2018-06-18T03:53:52.725Z,108.00
2018-06-18T03:54:52.717Z,116.00
2018-06-18T03:55:52.715Z,124.00
2018-06-18T03:56:52.696Z,132.00
2018-06-18T03:57:52.669Z,136.00
2018-06-18T03:58:52.654Z,128.00
2018-06-18T03:59:52.633Z,124.00
2018-06-18T04:00:52.600Z,116.00
2018-06-18T04:01:52.681Z,116.00
2018-06-18T04:02:52.588Z,120.00
2018-06-18T04:03:52.566Z,128.00
2018-06-18T04:04:52.543Z,132.00
2018-06-18T04:05:52.530Z,128.00
2018-06-18T04:06:52.529Z,128.00
2018-06-18T04:07:52.489Z,128.00
2018-06-18T04:08:52.478Z,140.00
2018-06-18T04:09:52.485Z,140.00
2018-06-18T04:10:52.462Z,140.00
2018-06-18T04:11:52.456Z,148.00
2018-06-18T04:12:52.478Z,156.00
2018-06-18T04:13:52.413Z,156.00
2018-06-18T04:14:52.396Z,152.00
2018-06-18T04:15:52.364Z,140.00
2018-06-18T04:16:52.347Z,132.00
2018-06-18T04:17:52.324Z,128.00
2018-06-18T04:18:52.307Z,136.00
2018-06-18T04:19:52.272Z,144.00
2018-06-18T04:20:52.256Z,152.00
2018-06-18T04:21:52.237Z,168.00
2018-06-18T04:22:52.222Z,188.00
2018-06-18T04:23:52.204Z,208.00
2018-06-18T04:24:52.189Z,208.00
2018-06-18T04:25:52.170Z,188.00
2018-06-18T04:26:52.186Z,168.00
2018-06-18T04:27:52.156Z,160.00
2018-06-18T04:28:52.143Z,164.00
2018-06-18T04:29:52.102Z,168.00
2018-06-18T04:30:52.109Z,196.00
2018-06-18T04:31:52.067Z,220.00
2018-06-18T04:32:52.051Z,232.00
2018-06-18T04:33:52.059Z,240.00
2018-06-18T04:34:52.019Z,264.00
2018-06-18T04:35:52.153Z,260.00
2018-06-18T04:36:51.984Z,256.00
2018-06-18T04:37:51.992Z,236.00
2018-06-18T04:38:51.953Z,224.00
2018-06-18T04:39:51.933Z,236.00
2018-06-18T04:40:51.919Z,264.00
2018-06-18T04:41:51.901Z,272.00
2018-06-18T04:42:51.886Z,300.00
2018-06-18T04:43:51.866Z,288.00
2018-06-18T04:44:51.942Z,276.00
2018-06-18T04:45:51.834Z,272.00
2018-06-18T04:46:51.816Z,272.00
2018-06-18T04:47:51.800Z,272.00
2018-06-18T04:48:51.783Z,280.00
2018-06-18T04:49:51.766Z,296.00
2018-06-18T04:50:51.752Z,260.00
2018-06-18T04:51:51.733Z,224.00
2018-06-18T04:52:51.715Z,228.00
2018-06-18T04:53:51.700Z,216.00
2018-06-18T04:54:51.683Z,216.00
2018-06-18T04:55:51.702Z,220.00
2018-06-18T04:56:51.651Z,228.00
2018-06-18T04:57:51.633Z,232.00
2018-06-18T04:58:51.616Z,276.00
2018-06-18T04:59:51.599Z,292.00
2018-06-18T05:00:51.582Z,300.00
2018-06-18T05:01:51.607Z,308.00
2018-06-18T05:02:51.550Z,308.00
2018-06-18T05:03:51.531Z,312.00
2018-06-18T05:04:51.517Z,300.00
2018-06-18T05:05:51.498Z,288.00
2018-06-18T05:06:51.483Z,332.00
2018-06-18T05:07:51.465Z,336.00
2018-06-18T05:08:51.449Z,340.00
2018-06-18T05:09:51.433Z,348.00
2018-06-18T05:10:51.416Z,340.00
2018-06-18T05:11:51.410Z,344.00
2018-06-18T05:12:51.444Z,344.00
2018-06-18T05:13:51.371Z,388.00
2018-06-18T05:14:51.348Z,428.00
2018-06-18T05:15:51.335Z,452.00
2018-06-18T05:16:51.314Z,468.00
2018-06-18T05:17:51.296Z,480.00
2018-06-18T05:18:51.282Z,488.00
2018-06-18T05:19:51.264Z,492.00
2018-06-18T05:20:51.248Z,484.00
2018-06-18T05:21:51.237Z,472.00
2018-06-18T05:22:51.214Z,448.00
2018-06-18T05:23:51.202Z,440.00
2018-06-18T05:24:51.178Z,404.00
2018-06-18T05:25:51.162Z,376.00
2018-06-18T05:26:51.144Z,360.00
2018-06-18T05:27:51.128Z,344.00
2018-06-18T05:28:51.111Z,336.00
2018-06-18T05:29:51.098Z,320.00
2018-06-18T05:30:51.080Z,324.00
2018-06-18T05:31:51.061Z,324.00
2018-06-18T05:32:51.045Z,328.00
2018-06-18T05:33:51.028Z,332.00
2018-06-18T05:34:51.023Z,360.00
2018-06-18T05:35:50.994Z,380.00
2018-06-18T05:36:50.984Z,412.00
2018-06-18T05:37:50.969Z,396.00
2018-06-18T05:38:50.945Z,364.00
2018-06-18T05:39:50.932Z,356.00
2018-06-18T05:40:50.908Z,356.00
2018-06-18T05:41:50.901Z,372.00
2018-06-18T05:42:50.875Z,416.00
2018-06-18T05:43:50.860Z,428.00
2018-06-18T05:44:50.840Z,424.00
2018-06-18T05:45:50.825Z,416.00
2018-06-18T05:46:50.809Z,424.00
2018-06-18T05:47:50.791Z,440.00
2018-06-18T05:48:50.772Z,492.00
2018-06-18T05:49:50.762Z,548.00
2018-06-18T05:50:50.743Z,588.00
2018-06-18T05:51:50.722Z,548.00
2018-06-18T05:52:50.707Z,532.00
2018-06-18T05:53:50.689Z,492.00
2018-06-18T05:54:50.673Z,504.00
2018-06-18T05:55:50.657Z,568.00
2018-06-18T05:56:50.637Z,504.00
2018-06-18T05:57:50.622Z,536.00
2018-06-18T05:58:50.610Z,564.00
2018-06-18T05:59:50.588Z,540.00
2018-06-18T06:00:50.572Z,456.00
2018-06-18T06:01:50.554Z,496.00
2018-06-18T06:02:50.537Z,628.00
2018-06-18T06:03:50.521Z,608.00
2018-06-18T06:04:50.502Z,572.00
2018-06-18T06:05:50.487Z,580.00
2018-06-18T06:06:50.473Z,520.00
2018-06-18T06:07:50.453Z,608.00
2018-06-18T06:08:50.437Z,604.00
2018-06-18T06:09:50.423Z,512.00
2018-06-18T06:10:50.404Z,488.00
2018-06-18T06:11:50.387Z,512.00
2018-06-18T06:12:50.422Z,532.00
2018-06-18T06:13:50.352Z,536.00
2018-06-18T06:14:50.336Z,536.00
2018-06-18T06:15:50.320Z,576.00
2018-06-18T06:16:50.352Z,584.00
2018-06-18T06:17:50.288Z,616.00
2018-06-18T06:18:50.268Z,608.00
2018-06-18T06:19:50.251Z,596.00
2018-06-18T06:20:50.235Z,616.00
2018-06-18T06:21:50.220Z,584.00
2018-06-18T06:22:50.199Z,576.00
2018-06-18T06:23:50.183Z,576.00
2018-06-18T06:24:50.166Z,604.00
2018-06-18T06:25:50.150Z,624.00
2018-06-18T06:26:50.134Z,668.00
2018-06-18T06:27:50.115Z,728.00
2018-06-18T06:28:50.099Z,752.00
2018-06-18T06:29:50.081Z,852.00
2018-06-18T06:30:50.064Z,928.00
2018-06-18T06:31:50.052Z,952.00
2018-06-18T06:32:50.030Z,956.00
2018-06-18T06:33:50.014Z,916.00
2018-06-18T06:34:49.997Z,868.00
2018-06-18T06:35:49.983Z,816.00
2018-06-18T06:36:49.965Z,752.00
2018-06-18T06:37:49.947Z,760.00
2018-06-18T06:38:49.931Z,828.00
2018-06-18T06:39:49.910Z,856.00
2018-06-18T06:40:49.894Z,788.00
2018-06-18T06:41:49.877Z,752.00
2018-06-18T06:42:49.860Z,900.00
2018-06-18T06:43:49.844Z,960.00
2018-06-18T06:44:49.826Z,992.00
2018-06-18T06:45:49.809Z,952.00
2018-06-18T06:46:49.793Z,800.00
2018-06-18T06:47:49.777Z,784.00
2018-06-18T06:48:49.769Z,740.00
2018-06-18T06:49:49.742Z,684.00
2018-06-18T06:50:49.730Z,752.00
2018-06-18T06:51:49.710Z,888.00
2018-06-18T06:52:49.689Z,848.00
2018-06-18T06:53:49.676Z,724.00
2018-06-18T06:54:49.659Z,728.00
2018-06-18T06:55:49.662Z,788.00
2018-06-18T06:56:49.624Z,792.00
2018-06-18T06:57:49.612Z,812.00
2018-06-18T06:58:49.592Z,824.00
2018-06-18T06:59:49.575Z,800.00
2018-06-18T07:00:49.577Z,852.00
2018-06-18T07:01:49.541Z,856.00
2018-06-18T07:02:49.528Z,836.00
2018-06-18T07:03:49.510Z,812.00
2018-06-18T07:04:49.492Z,840.00
2018-06-18T07:05:49.476Z,832.00
2018-06-18T07:06:49.456Z,808.00
2018-06-18T07:07:49.442Z,864.00
2018-06-18T07:08:49.426Z,860.00
2018-06-18T07:09:49.409Z,844.00
2018-06-18T07:10:49.395Z,812.00
2018-06-18T07:11:49.373Z,864.00
2018-06-18T07:12:49.377Z,988.00
2018-06-18T07:13:49.345Z,1140.00
2018-06-18T07:14:49.329Z,1312.00
2018-06-18T07:15:49.308Z,1296.00
2018-06-18T07:16:49.291Z,1332.00
2018-06-18T07:17:49.276Z,1340.00
2018-06-18T07:18:49.260Z,1340.00
2018-06-18T07:19:49.241Z,1392.00
2018-06-18T07:20:49.226Z,1472.00
2018-06-18T07:21:49.208Z,1584.00
2018-06-18T07:22:49.200Z,1604.00
2018-06-18T07:23:49.173Z,1604.00
2018-06-18T07:24:49.159Z,1580.00
2018-06-18T07:25:49.142Z,1508.00
2018-06-18T07:26:49.128Z,1512.00
2018-06-18T07:27:49.109Z,1492.00
2018-06-18T07:28:49.091Z,1452.00
2018-06-18T07:29:49.079Z,1392.00
2018-06-18T07:30:49.069Z,1380.00
2018-06-18T07:31:49.045Z,1360.00
2018-06-18T07:32:49.026Z,1432.00
2018-06-18T07:33:49.012Z,1444.00
2018-06-18T07:34:48.996Z,1436.00
2018-06-18T07:35:48.979Z,1416.00
2018-06-18T07:36:48.961Z,1356.00
2018-06-18T07:37:48.946Z,1208.00
2018-06-18T07:38:48.930Z,1104.00
2018-06-18T07:39:48.913Z,1096.00
2018-06-18T07:40:48.909Z,1104.00
2018-06-18T07:41:48.879Z,1104.00
2018-06-18T07:42:48.874Z,1140.00
2018-06-18T07:43:48.848Z,1164.00
2018-06-18T07:44:48.832Z,1188.00
2018-06-18T07:45:48.816Z,1208.00
2018-06-18T07:46:48.798Z,1180.00
2018-06-18T07:47:48.782Z,1188.00
2018-06-18T07:48:48.768Z,1228.00
2018-06-18T07:49:48.751Z,1260.00
2018-06-18T07:50:48.733Z,1252.00
2018-06-18T07:51:48.798Z,1216.00
2018-06-18T07:52:48.703Z,1184.00
2018-06-18T07:53:48.687Z,1172.00
2018-06-18T07:54:48.670Z,1184.00
2018-06-18T07:55:48.652Z,1220.00
2018-06-18T07:56:48.638Z,1272.00
2018-06-18T07:57:48.622Z,1332.00
2018-06-18T07:58:48.606Z,1360.00
2018-06-18T07:59:48.588Z,1336.00
2018-06-18T08:00:48.572Z,1316.00
2018-06-18T08:01:48.557Z,1328.00
2018-06-18T08:02:48.544Z,1340.00
2018-06-18T08:03:48.525Z,1324.00
2018-06-18T08:04:48.507Z,1336.00
2018-06-18T08:05:48.492Z,1344.00
2018-06-18T08:06:48.476Z,1348.00
2018-06-18T08:07:48.464Z,1344.00
2018-06-18T08:08:48.444Z,1328.00
2018-06-18T08:09:48.442Z,1324.00
2018-06-18T08:10:48.411Z,1344.00
2018-06-18T08:11:48.396Z,1352.00
2018-06-18T08:12:48.380Z,1356.00
2018-06-18T08:13:48.366Z,1364.00
2018-06-18T08:14:48.348Z,1392.00
2018-06-18T08:15:48.350Z,1420.00
2018-06-18T08:16:48.315Z,1448.00
2018-06-18T08:17:48.307Z,1464.00
2018-06-18T08:18:48.283Z,1492.00
2018-06-18T08:19:48.268Z,1504.00
2018-06-18T08:20:48.252Z,1560.00
2018-06-18T08:21:48.238Z,1656.00
2018-06-18T08:22:48.222Z,1680.00
2018-06-18T08:23:48.212Z,1744.00
2018-06-18T08:24:48.191Z,1832.00
2018-06-18T08:25:48.171Z,1908.00
2018-06-18T08:26:48.167Z,1996.00
2018-06-18T08:27:48.147Z,2052.00
2018-06-18T08:28:48.123Z,2048.00
2018-06-18T08:29:48.108Z,2020.00
2018-06-18T08:30:48.093Z,2024.00
2018-06-18T08:31:48.076Z,2124.00
2018-06-18T08:32:48.061Z,2196.00
2018-06-18T08:33:48.046Z,2224.00
2018-06-18T08:34:48.052Z,2080.00
2018-06-18T08:35:48.011Z,2288.00
2018-06-18T08:36:48.001Z,2008.00
2018-06-18T08:37:47.981Z,1776.00
2018-06-18T08:38:47.965Z,1748.00
2018-06-18T08:39:47.947Z,1792.00
2018-06-18T08:40:47.932Z,1836.00
2018-06-18T08:41:47.927Z,1880.00
2018-06-18T08:42:47.900Z,2000.00
2018-06-18T08:43:47.886Z,2328.00
2018-06-18T08:44:47.869Z,2072.00
2018-06-18T08:45:47.853Z,1800.00
2018-06-18T08:46:47.839Z,1704.00
2018-06-18T08:47:47.825Z,1976.00
2018-06-18T08:48:47.812Z,2640.00
2018-06-18T08:49:47.791Z,2304.00
2018-06-18T08:50:47.777Z,2364.00
2018-06-18T08:51:47.758Z,2296.00
2018-06-18T08:52:47.755Z,2232.00
2018-06-18T08:53:47.729Z,1476.00
2018-06-18T08:54:47.712Z,1784.00
2018-06-18T08:55:47.713Z,2252.00
2018-06-18T08:56:47.683Z,2308.00
2018-06-18T08:57:47.725Z,2204.00
2018-06-18T08:58:47.655Z,2192.00
2018-06-18T08:59:47.644Z,2552.00
2018-06-18T09:00:47.622Z,2344.00
2018-06-18T09:01:47.604Z,2184.00
2018-06-18T09:02:47.601Z,2124.00
2018-06-18T09:03:47.580Z,1764.00
2018-06-18T09:04:47.562Z,1592.00
2018-06-18T09:05:47.544Z,1676.00
2018-06-18T09:06:47.528Z,1536.00
2018-06-18T09:07:47.534Z,1536.00
2018-06-18T09:08:47.495Z,1480.00
2018-06-18T09:09:47.486Z,1416.00
2018-06-18T09:10:47.466Z,1936.00
2018-06-18T09:11:47.470Z,1976.00
2018-06-18T09:12:47.438Z,2184.00
2018-06-18T09:13:47.419Z,1996.00
2018-06-18T09:14:47.406Z,2200.00
2018-06-18T09:15:47.396Z,1748.00
2018-06-18T09:16:47.374Z,1432.00
2018-06-18T09:17:47.360Z,1708.00
2018-06-18T09:18:47.345Z,1272.00
2018-06-18T09:19:47.327Z,844.00
2018-06-18T09:20:47.338Z,924.00
2018-06-18T09:21:47.297Z,828.00
2018-06-18T09:22:47.282Z,924.00
2018-06-18T09:23:47.267Z,936.00
2018-06-18T09:24:47.252Z,756.00
2018-06-18T09:25:47.239Z,864.00
2018-06-18T09:26:47.224Z,1220.00
2018-06-18T09:27:47.207Z,1516.00
2018-06-18T09:28:47.190Z,1460.00
2018-06-18T09:29:47.176Z,1384.00
2018-06-18T09:30:47.161Z,2168.00
2018-06-18T09:31:47.145Z,2800.00
2018-06-18T09:32:47.128Z,2044.00
2018-06-18T09:33:47.113Z,1420.00
2018-06-18T09:34:47.101Z,1628.00
2018-06-18T09:35:47.096Z,1876.00
2018-06-18T09:36:47.066Z,1740.00
2018-06-18T09:37:47.053Z,1336.00
2018-06-18T09:38:47.046Z,1084.00
2018-06-18T09:39:47.024Z,1084.00
2018-06-18T09:40:47.006Z,892.00
2018-06-18T09:41:46.991Z,872.00
2018-06-18T09:42:46.976Z,1064.00
2018-06-18T09:43:46.960Z,1044.00
2018-06-18T09:44:46.946Z,960.00
2018-06-18T09:45:46.930Z,860.00
2018-06-18T09:46:46.913Z,716.00
2018-06-18T09:47:46.897Z,700.00
2018-06-18T09:48:46.885Z,720.00
2018-06-18T09:49:46.868Z,836.00
2018-06-18T09:50:46.853Z,1248.00
2018-06-18T09:51:46.840Z,1528.00
2018-06-18T09:52:46.822Z,1984.00
2018-06-18T09:53:46.807Z,3020.00
2018-06-18T09:54:46.794Z,3488.00
2018-06-18T09:55:46.799Z,3584.00
2018-06-18T09:56:46.761Z,3056.00
2018-06-18T09:57:46.744Z,2680.00
2018-06-18T09:58:46.742Z,2508.00
2018-06-18T09:59:46.713Z,2160.00
2018-06-18T10:00:46.700Z,2008.00
2018-06-18T10:01:46.685Z,1880.00
2018-06-18T10:02:46.671Z,1500.00
2018-06-18T10:03:46.654Z,1200.00
2018-06-18T10:04:46.640Z,1164.00
2018-06-18T10:05:46.626Z,1124.00
2018-06-18T10:06:46.610Z,1024.00
2018-06-18T10:07:46.596Z,992.00
2018-06-18T10:08:46.680Z,912.00
2018-06-18T10:09:46.562Z,832.00
2018-06-18T10:10:46.550Z,756.00
2018-06-18T10:11:46.532Z,832.00
2018-06-18T10:12:46.518Z,884.00
2018-06-18T10:13:46.503Z,760.00
2018-06-18T10:14:46.490Z,840.00
2018-06-18T10:15:46.471Z,968.00
2018-06-18T10:16:46.457Z,936.00
2018-06-18T10:17:46.443Z,1040.00
2018-06-18T10:18:46.427Z,1164.00
2018-06-18T10:19:46.409Z,1156.00
2018-06-18T10:20:46.395Z,1144.00
2018-06-18T10:21:46.381Z,1224.00
2018-06-18T10:22:46.366Z,1260.00
2018-06-18T10:23:46.348Z,1252.00
2018-06-18T10:24:46.340Z,1344.00
2018-06-18T10:25:46.319Z,1376.00
2018-06-18T10:26:46.302Z,1836.00
2018-06-18T10:27:46.307Z,2320.00
2018-06-18T10:28:46.272Z,2296.00
2018-06-18T10:29:46.258Z,3392.00
2018-06-18T10:30:46.243Z,3304.00
2018-06-18T10:31:46.230Z,3700.00
2018-06-18T10:32:46.210Z,3820.00
2018-06-18T10:33:46.196Z,3504.00
2018-06-18T10:34:46.180Z,3632.00
2018-06-18T10:35:46.169Z,3716.00
2018-06-18T10:36:46.149Z,3636.00
2018-06-18T10:37:46.135Z,3524.00
2018-06-18T10:38:46.119Z,3168.00
2018-06-18T10:39:46.102Z,3204.00
2018-06-18T10:40:46.089Z,3268.00
2018-06-18T10:41:46.074Z,3460.00
2018-06-18T10:42:46.062Z,3460.00
2018-06-18T10:43:46.042Z,3404.00
2018-06-18T10:44:46.030Z,2592.00
2018-06-18T10:45:46.014Z,2768.00
2018-06-18T10:46:45.998Z,1968.00
2018-06-18T10:47:45.984Z,1644.00
2018-06-18T10:48:45.981Z,1112.00
2018-06-18T10:49:45.954Z,1284.00
2018-06-18T10:50:45.939Z,1324.00
2018-06-18T10:51:45.924Z,1296.00
2018-06-18T10:52:45.908Z,1232.00
2018-06-18T10:53:45.897Z,1572.00
2018-06-18T10:54:45.881Z,2344.00
2018-06-18T10:55:45.863Z,1760.00
2018-06-18T10:56:45.855Z,1660.00
2018-06-18T10:57:45.835Z,1976.00
2018-06-18T10:58:45.820Z,2340.00
2018-06-18T10:59:45.804Z,1964.00
2018-06-18T11:00:45.790Z,1928.00
2018-06-18T11:01:45.775Z,1708.00
2018-06-18T11:02:45.760Z,2036.00
2018-06-18T11:03:45.756Z,2816.00
2018-06-18T11:04:45.730Z,3388.00
2018-06-18T11:05:45.716Z,3232.00
2018-06-18T11:06:45.701Z,2772.00
2018-06-18T11:07:45.684Z,3160.00
2018-06-18T11:08:45.991Z,3256.00
2018-06-18T11:09:45.656Z,3652.00
2018-06-18T11:10:45.641Z,4572.00
2018-06-18T11:11:45.624Z,2356.00
2018-06-18T11:12:45.675Z,4248.00
2018-06-18T11:13:45.598Z,26144.00
2018-06-18T11:14:45.582Z,8528.00
2018-06-18T11:15:45.578Z,3012.00
2018-06-18T11:16:45.729Z,3772.00
2018-06-18T11:17:45.577Z,3932.00
2018-06-18T11:18:45.535Z,3652.00
2018-06-18T11:19:45.513Z,4720.00
2018-06-18T11:20:45.506Z,4920.00
2018-06-18T11:21:45.488Z,4748.00
2018-06-18T11:22:45.474Z,4816.00
2018-06-18T11:23:45.467Z,9848.00
2018-06-18T11:24:45.444Z,7212.00
2018-06-18T11:25:45.469Z,20320.00
2018-06-18T11:26:45.463Z,5448.00
2018-06-18T11:27:45.421Z,4212.00
2018-06-18T11:28:45.455Z,8556.00
2018-06-18T11:29:45.375Z,5380.00
2018-06-18T11:30:45.357Z,6648.00
2018-06-18T11:31:45.337Z,7400.00
2018-06-18T11:32:45.323Z,6632.00
2018-06-18T11:33:45.325Z,5884.00
2018-06-18T11:34:45.299Z,12320.00
2018-06-18T11:35:45.285Z,4408.00
2018-06-18T11:36:45.325Z,3892.00
2018-06-18T11:37:45.281Z,3856.00
2018-06-18T11:38:45.249Z,2984.00
2018-06-18T11:39:45.228Z,2728.00
2018-06-18T11:40:45.285Z,2584.00
2018-06-18T11:41:45.265Z,2464.00
2018-06-18T11:42:45.196Z,2284.00
2018-06-18T11:43:45.220Z,1992.00
2018-06-18T11:44:45.162Z,1700.00
2018-06-18T11:45:45.158Z,1568.00
2018-06-18T11:46:45.134Z,1492.00
2018-06-18T11:47:45.120Z,1424.00
2018-06-18T11:48:45.111Z,1328.00
2018-06-18T11:49:45.094Z,1420.00
2018-06-18T11:50:45.079Z,1420.00
2018-06-18T11:51:45.073Z,1276.00
2018-06-18T11:52:45.095Z,1240.00
2018-06-18T11:53:45.040Z,1108.00
2018-06-18T11:54:45.017Z,1168.00
2018-06-18T11:55:45.004Z,1384.00
2018-06-18T11:56:45.021Z,1420.00
2018-06-18T11:57:44.986Z,1668.00
2018-06-18T11:58:44.961Z,1688.00
2018-06-18T11:59:44.944Z,1348.00
2018-06-18T12:00:44.965Z,1300.00
2018-06-18T12:01:44.918Z,1456.00
2018-06-18T12:02:44.901Z,1668.00
2018-06-18T12:03:44.887Z,1620.00
2018-06-18T12:04:44.874Z,1356.00
2018-06-18T12:05:44.858Z,1252.00
2018-06-18T12:06:44.844Z,1240.00
2018-06-18T12:07:44.838Z,1180.00
2018-06-18T12:08:44.814Z,1180.00
2018-06-18T12:09:44.877Z,1056.00
2018-06-18T12:10:44.834Z,1032.00
2018-06-18T12:11:44.770Z,1264.00
2018-06-18T12:12:44.754Z,1420.00
2018-06-18T12:13:44.742Z,1428.00
2018-06-18T12:14:44.726Z,1756.00
2018-06-18T12:15:44.715Z,1704.00
2018-06-18T12:16:44.739Z,1744.00
2018-06-18T12:17:44.681Z,1744.00
2018-06-18T12:18:44.668Z,1908.00
2018-06-18T12:19:44.654Z,2220.00
2018-06-18T12:20:44.637Z,2656.00
2018-06-18T12:21:44.690Z,3008.00
2018-06-18T12:22:44.610Z,2736.00
2018-06-18T12:23:44.637Z,2504.00
2018-06-18T12:24:44.626Z,2512.00
2018-06-18T12:25:44.568Z,2352.00
2018-06-18T12:26:44.549Z,2232.00
2018-06-18T12:27:44.534Z,2096.00
2018-06-18T12:28:44.556Z,1648.00
2018-06-18T12:29:44.504Z,1872.00
2018-06-18T12:30:44.487Z,2072.00
2018-06-18T12:31:44.473Z,2148.00
2018-06-18T12:32:44.457Z,2020.00